Latest Coastal Weather Observations for Lake Macquarie - Cooranbong

IDN60701

Issued at 11:12 pm EST Tuesday 28 June 2016 (issued every 10 minutes, with the page automatically refreshed every 10 minutes)

About coastal observations | Map of coastal stations | Coastal observations for NSW | Marine services | Other Formats
Station Details ID: 061412 Name: LAKE MACQUARIE AWS Lat: -33.09 Lon: 151.46 Height: 6.0 m
Data from the previous 72 hours. | See also: Recent months at Lake Macquarie - Cooranbong
Date/Time
EST
Temp
°C
Wind Pressure Rain since
9am
mm
Weather Cloud Vis
km
Sea
Height
m
Swell
Dir  Spd
kts
Gust
kts
hPa Trend Height
m
Period
s
Dir
28/11:00pm 3.4 CALM 0 0 1027.4 - 0.0 - - - - - - -
28/10:30pm 3.8 CALM 0 0 1027.4 - 0.0 - - - - - - -
28/10:00pm 3.9 CALM 0 0 1027.4 - 0.0 - - - - - - -
28/09:30pm 4.1 CALM 0 0 1027.1 - 0.0 - - - - - - -
28/09:00pm 4.4 CALM 0 0 1026.9 - 0.0 - - - - - - -
28/08:30pm 5.0 CALM 0 0 1026.8 - 0.0 - - - - - - -
28/08:00pm 5.5 CALM 0 0 1026.5 - 0.0 - - - - - - -
28/07:30pm 5.8 CALM 0 0 1026.2 - 0.0 - - - - - - -
28/07:00pm 6.5 CALM 0 0 1026.0 - 0.0 - - - - - - -
28/06:30pm 7.3 CALM 0 0 1025.6 - 0.0 - - - - - - -
28/06:00pm 8.4 CALM 0 0 1025.4 - 0.0 - - - - - - -
28/05:30pm 9.6 CALM 0 0 1024.9 - 0.0 - - - - - - -
28/05:00pm 11.2 CALM 0 0 1024.4 - 0.0 - - - - - - -
28/04:30pm 13.8 CALM 0 1 1024.2 - 0.0 - - - - - - -
28/04:00pm 15.7 SW 3 5 1023.8 - 0.0 - - - - - - -
28/03:30pm 16.3 SW 3 7 1023.6 - 0.0 - - - - - - -
28/03:00pm 16.7 WSW 3 8 1023.2 - 0.0 - - - - - - -
28/02:30pm 16.9 WSW 4 10 1022.9 - 0.0 - - - - - - -
28/02:00pm 16.2 WSW 6 10 1022.7 - 0.0 - - - - - - -
28/01:30pm 16.5 WSW 6 11 1022.7 - 0.0 - - - - - - -
28/01:00pm 16.1 WSW 5 10 1022.6 - 0.0 - - - - - - -
28/12:30pm 16.0 WSW 5 10 1022.6 - 0.0 - - - - - - -
28/12:00pm 15.9 WSW 5 10 1022.8 - 0.0 - - - - - - -
28/11:30am 15.1 SW 5 12 1023.0 - 0.0 - - - - - - -
28/11:00am 14.6 WSW 7 13 1023.2 - 0.0 - - - - - - -
28/10:30am 14.4 SW 6 10 1023.5 - 0.0 - - - - - - -
28/10:00am 13.9 SW 6 15 1023.3 - 0.0 - - - - - - -
28/09:30am 12.4 WSW 7 14 1023.0 - 0.0 - - - - - - -
28/09:00am 11.8 WSW 5 10 1022.5 - 0.4 - - - - - - -
28/08:30am 11.6 WSW 6 13 1022.3 - 0.4 - - - - - - -
28/08:00am 11.3 WSW 6 12 1022.1 - 0.4 - - - - - - -
28/07:30am 11.0 WSW 6 12 1021.5 - 0.4 - - - - - - -
28/07:00am 11.1 WSW 5 12 1021.2 - 0.4 - - - - - - -
28/06:30am 10.8 WSW 5 12 1020.7 - 0.4 - - - - - - -
28/06:00am 10.9 WSW 6 10 1020.1 - 0.4 - - - - - - -
28/05:30am 11.1 WSW 8 15 1019.3 - 0.4 - - - - - - -
28/05:00am 10.8 WSW 6 11 1018.8 - 0.4 - - - - - - -
28/04:30am 11.1 WSW 7 15 1018.6 - 0.4 - - - - - - -
28/04:00am 11.2 W 6 15 1018.5 - 0.4 - - - - - - -
28/03:30am 10.9 WSW 7 14 1018.3 - 0.4 - - - - - - -
28/03:00am 10.8 WSW 5 12 1018.2 - 0.4 - - - - - - -
28/02:30am 11.1 W 7 14 1017.8 - 0.4 - - - - - - -
28/02:00am 11.1 W 7 13 1017.8 - 0.4 - - - - - - -
28/01:30am 11.0 W 6 12 1017.7 - 0.4 - - - - - - -
28/01:00am 10.8 W 5 8 1017.5 - 0.4 - - - - - - -
28/12:30am 11.0 W 6 13 1017.4 - 0.4 - - - - - - -
28/12:00am 11.0 W 7 14 1017.1 - 0.4 - - - - - - -
 
Date/Time
EST
Temp
°C
Wind Pressure Rain since
9am
mm
Weather Cloud Vis
km
Sea
Height
m
Swell
Dir  Spd
kts
Gust
kts
hPa Trend Height
m
Period
s
Dir
27/11:30pm 10.3 WSW 4 11 1017.3 - 0.4 - - - - - - -
27/11:00pm 9.7 W 4 8 1017.1 - 0.4 - - - - - - -
27/10:30pm 10.1 W 6 10 1017.4 - 0.2 - - - - - - -
27/10:00pm 11.4 WSW 5 10 1017.1 - 0.0 - - - - - - -
27/09:30pm 11.6 W 6 11 1016.6 - 0.0 - - - - - - -
27/09:00pm 11.2 W 4 9 1016.6 - 0.0 - - - - - - -
27/08:30pm 10.9 WNW 4 7 1016.5 - 0.0 - - - - - - -
27/08:00pm 11.0 WNW 3 7 1016.4 - 0.0 - - - - - - -
27/07:30pm 10.8 WNW 3 4 1016.4 - 0.0 - - - - - - -
27/07:00pm 11.1 WNW 4 6 1016.2 - 0.0 - - - - - - -
27/06:30pm 10.8 NW 3 5 1016.0 - 0.0 - - - - - - -
27/06:00pm 11.2 NW 2 4 1015.7 - 0.0 - - - - - - -
27/05:30pm 11.6 W 4 7 1015.3 - 0.0 - - - - - - -
27/05:00pm 11.6 W 5 10 1015.0 - 0.0 - - - - - - -
27/04:30pm 11.6 W 4 6 1014.5 - 0.0 - - - - - - -
27/04:00pm 11.9 W 5 7 1014.1 - 0.0 - - - - - - -
27/03:30pm 12.1 W 4 8 1013.9 - 0.0 - - - - - - -
27/03:00pm 12.0 WSW 4 6 1013.7 - 0.0 - - - - - - -
27/02:30pm 12.1 WSW 4 5 1013.5 - 0.0 - - - - - - -
27/02:00pm 12.7 W 4 8 1013.3 - 0.0 - - - - - - -
27/01:30pm 12.9 W 3 7 1013.2 - 0.0 - - - - - - -
27/01:00pm 12.9 W 5 11 1013.2 - 0.0 - - - - - - -
27/12:30pm 12.6 NW 5 10 1013.5 - 0.0 - - - - - - -
27/12:00pm 11.6 NW 6 11 1013.7 - 0.0 - - - - - - -
27/11:30am 11.7 WNW 8 15 1014.3 - 0.0 - - - - - - -
27/11:00am 12.5 NNW 6 9 1014.7 - 0.0 - - - - - - -
27/10:30am 11.0 NW 5 9 1015.1 - 0.0 - - - - - - -
27/10:00am 10.6 NW 5 10 1015.5 - 0.0 - - - - - - -
27/09:30am 10.1 NW 4 7 1015.6 - 0.0 - - - - - - -
27/09:00am 10.1 WNW 4 8 1015.7 - 0.0 - - - - - - -
27/08:30am 9.9 NW 4 5 1015.6 - 0.0 - - - - - - -
27/08:00am 9.7 NW 4 9 1015.8 - 0.0 - - - - - - -
27/07:30am 8.4 NNW 1 3 1015.9 - 0.0 - - - - - - -
27/07:00am 7.8 NNW 2 3 1015.6 - 0.0 - - - - - - -
27/06:30am 6.9 N 1 3 1015.4 - 0.0 - - - - - - -
27/06:00am 7.3 WNW 1 2 1015.2 - 0.0 - - - - - - -
27/05:30am 7.0 CALM 0 0 1014.8 - 0.0 - - - - - - -
27/05:00am 7.0 CALM 0 2 1014.7 - 0.0 - - - - - - -
27/04:30am 7.0 NW 2 3 1014.5 - 0.0 - - - - - - -
27/04:00am 6.8 CALM 0 1 1014.7 - 0.0 - - - - - - -
27/03:30am 6.9 CALM 0 0 1015.0 - 0.0 - - - - - - -
27/03:00am 6.9 NNW 2 2 1015.1 - 0.0 - - - - - - -
27/02:30am 7.0 CALM 0 0 1015.1 - 0.0 - - - - - - -
27/02:00am 6.9 CALM 0 0 1015.3 - 0.0 - - - - - - -
27/01:30am 7.2 CALM 0 0 1015.4 - 0.0 - - - - - - -
27/01:00am 6.9 CALM 0 0 1015.4 - 0.0 - - - - - - -
27/12:30am 6.8 CALM 0 0 1015.9 - 0.0 - - - - - - -
27/12:00am 6.8 CALM 0 0 1016.4 - 0.0 - - - - - - -
 
Date/Time
EST
Temp
°C
Wind Pressure Rain since
9am
mm
Weather Cloud Vis
km
Sea
Height
m
Swell
Dir  Spd
kts
Gust
kts
hPa Trend Height
m
Period
s
Dir
26/11:30pm 6.9 CALM 0 0 1016.3 - 0.0 - - - - - - -
26/11:00pm 7.0 CALM 0 0 1016.3 - 0.0 - - - - - - -
26/10:30pm 7.0 CALM 0 2 1016.3 - 0.0 - - - - - - -
26/10:00pm 6.9 CALM 0 0 1016.1 - 0.0 - - - - - - -
26/09:30pm 7.3 CALM 0 0 1016.5 - 0.0 - - - - - - -
26/09:00pm 7.5 CALM 0 0 1016.8 - 0.0 - - - - - - -
26/08:30pm 7.8 CALM 0 0 1017.6 - 0.0 - - - - - - -
26/08:00pm 8.1 CALM 0 0 1017.6 - 0.0 - - - - - - -
26/07:30pm 8.3 CALM 0 2 1017.8 - 0.0 - - - - - - -
26/07:00pm 8.9 N 1 2 1017.5 - 0.0 - - - - - - -
26/06:30pm 9.5 NNW 2 3 1017.4 - 0.0 - - - - - - -
26/06:00pm 9.3 CALM 0 0 1017.0 - 0.0 - - - - - - -
26/05:30pm 10.0 CALM 0 0 1016.8 - 0.0 - - - - - - -
26/05:00pm 10.5 ENE 1 2 1016.6 - 0.0 - - - - - - -
26/04:30pm 11.9 CALM 0 0 1016.8 - 0.0 - - - - - - -
26/04:00pm 13.4 CALM 0 0 1016.6 - 0.0 - - - - - - -
26/03:30pm 14.2 E 2 3 1017.1 - 0.0 - - - - - - -
26/03:00pm 14.5 ENE 1 3 1017.3 - 0.0 - - - - - - -
26/02:30pm 15.7 CALM 0 1 1017.4 - 0.0 - - - - - - -
26/02:00pm 15.2 N 2 3 1017.3 - 0.0 - - - - - - -
26/01:30pm 16.0 W 1 2 1017.9 - 0.0 - - - - - - -
26/01:00pm 16.3 N 1 3 1017.9 - 0.0 - - - - - - -
26/12:30pm 15.3 SE 2 4 1018.1 - 0.0 - - - - - - -
26/12:00pm 15.2 SSW 2 3 1018.8 - 0.0 - - - - - - -
26/11:30am 15.0 NE 1 3 1019.5 - 0.0 - - - - - - -
26/11:00am 13.8 N 2 4 1020.5 - 0.0 - - - - - - -
26/10:30am 12.8 N 1 3 1021.0 - 0.0 - - - - - - -
26/10:00am 11.6 CALM 0 0 1021.4 - 0.0 - - - - - - -
26/09:30am 9.0 NNE 1 2 1021.2 - 0.0 - - - - - - -
26/09:00am 5.7 CALM 0 2 1021.2 - 0.0 - - - - - - -
26/08:30am 2.3 CALM 0 0 1021.4 - 0.0 - - - - - - -
26/08:00am 1.4 CALM 0 0 1021.4 - 0.0 - - - - - - -
26/07:30am -0.4 CALM 0 0 1021.4 - 0.0 - - - - - - -
26/07:00am 0.0 CALM 0 0 1021.1 - 0.0 - - - - - - -
26/06:30am 0.3 CALM 0 0 1020.9 - 0.0 - - - - - - -
26/06:00am 0.7 ESE 1 2 1020.6 - 0.0 - - - - - - -
26/05:30am 0.5 CALM 0 0 1020.5 - 0.0 - - - - - - -
26/05:00am 0.4 NW 1 3 1020.0 - 0.0 - - - - - - -
26/04:30am 0.9 CALM 0 0 1020.1 - 0.0 - - - - - - -
26/04:00am 0.9 CALM 0 0 1020.1 - 0.0 - - - - - - -
26/03:30am 1.6 CALM 0 0 1020.0 - 0.0 - - - - - - -
26/03:00am 1.6 CALM 0 0 1019.8 - 0.0 - - - - - - -
26/02:30am 2.1 CALM 0 0 1020.0 - 0.0 - - - - - - -
26/02:00am 2.7 CALM 0 0 1020.6 - 0.0 - - - - - - -
26/01:30am 3.1 SSW 1 3 1020.6 - 0.0 - - - - - - -
26/01:00am 3.3 CALM 0 0 1020.6 - 0.0 - - - - - - -
26/12:30am 4.1 WNW 1 3 1020.9 - 0.0 - - - - - - -
26/12:00am 3.5 WNW 1 2 1021.1 - 0.0 - - - - - - -
 
Date/Time
EST
Temp
°C
Wind Pressure Rain since
9am
mm
Weather Cloud Vis
km
Sea
Height
m
Swell
Dir  Spd
kts
Gust
kts
hPa Trend Height
m
Period
s
Dir
25/11:30pm 2.2 CALM 0 1 1021.1 - 0.0 - - - - - - -

Other Formats:

Comma delimited format used in spreadsheet applications
http://www.bom.gov.au/fwo/IDN60701/IDN60701.95767.axf

JavaScript Object Notation format (JSON) in row-major order
http://www.bom.gov.au/fwo/IDN60701/IDN60701.95767.json